Etusivu
METAR-TAF:

METAR-TAF

Lentoasemat :

Caracas, Venezuela

Leveyspiiri: 10-36N, Pituuspiiri: 066-59W, korkeus merenpinnasta: 43 m

Tämänhetkinen sää

Tämä raportti tehtiin 24 minuuttia sitten, kello 07.00 UTC
tyyntä
Lämpötila 28°C
Kosteus 74%
Ilmanpaine 1013 hPa
Näkyvyys 10 km tai enemmän
Hajanaisia pilviä 1600 ft:n korkeudessa

METAR: SVMI 240700Z 00000KT 9999 SCT016 28/23 Q1013

Aika: 03:24 (07:24 UTC)

Sääennuste

Tämä raportti tehtiin 3 tuntia ja 24 minuuttia sitten, kello 04.00 UTC
Ennuste voimassa 24. päivästä klo 06 UTC - 25. päivään klo 06 UTC
Tuuli 5 kn idästä
Näkyvyys 10 km tai enemmän
Hajanaisia pilviä 1600 ft:n korkeudessa
Tulossa
24. päivästä klo 06 UTC - 24. päivään klo 10 UTC
Tuuli kn pohjoisesta
Muutamia pilviä 1600 ft:n korkeudessa

TAF: SVMI 240400Z 2406/2506 09005KT 9999 SCT016 TX33/18Z TN25/08Z BECMG 2406/2410 00000KT 99999 FEW016

Säähavainnot ja -ennusteet yli 4000 lentoasemalta (METAR- ja TAF-raportit).

Käytössä olevat sääasemat on merkitty karttaan keltaisilla ja punaisilla pisteillä.

Aseta hiiri pisteen päälle nähdäksesi sääaseman nimen.

Klikkaa sitten nähdäksesi säähavainnot ja -ennusteet.

Kartan vaihtaminen: klikkaa mustalla rastilla varustettuja vihreitä pisteitä, niin voit zoomata sisään; viivalla varustettua vihreää pistettä, niin voit zoomata ulos tai vihreitä nuolia, niin pääset viereisille kartoille.


METAR-TAF: